createdAt,value
2023-04-03T00:00:46.064Z,6.28
2023-04-03T00:02:49.023Z,6.23
2023-04-03T00:04:52.231Z,6.23
2023-04-03T00:06:55.029Z,6.29
2023-04-03T00:08:59.515Z,6.33
2023-04-03T00:11:02.760Z,6.34
2023-04-03T00:13:06.001Z,6.39
2023-04-03T00:15:09.676Z,6.36
2023-04-03T00:17:13.862Z,6.33
2023-04-03T00:19:16.610Z,6.24
2023-04-03T00:21:19.474Z,6.16
2023-04-03T00:23:24.479Z,6.16
2023-04-03T00:25:27.142Z,6.16
2023-04-03T00:27:30.039Z,6.11
2023-04-03T00:29:32.843Z,6.10
2023-04-03T00:31:35.664Z,6.09
2023-04-03T00:33:39.876Z,6.06
2023-04-03T00:35:43.244Z,6.03
2023-04-03T00:37:47.101Z,6.06
2023-04-03T00:39:49.969Z,5.99
2023-04-03T00:41:53.084Z,5.94
2023-04-03T00:43:55.944Z,6.03
2023-04-03T00:46:00.438Z,5.91
2023-04-03T00:48:07.644Z,5.92
2023-04-03T00:50:12.096Z,6.03
2023-04-03T00:52:18.167Z,5.91
2023-04-03T00:54:21.512Z,5.89
2023-04-03T00:56:28.197Z,5.90
2023-04-03T00:58:36.159Z,5.93
2023-04-03T01:00:42.211Z,5.85
2023-04-03T01:02:45.023Z,5.89
2023-04-03T01:04:49.843Z,5.86
2023-04-03T01:06:54.008Z,5.88
2023-04-03T01:08:57.629Z,5.88
2023-04-03T01:11:00.603Z,5.83
2023-04-03T01:13:21.088Z,5.82
2023-04-03T01:15:26.279Z,5.75
2023-04-03T01:17:32.112Z,5.75
2023-04-03T01:19:39.814Z,5.66
2023-04-03T01:22:04.842Z,5.77
2023-04-03T01:24:18.449Z,5.69
2023-04-03T01:26:22.200Z,5.68
2023-04-03T01:28:27.252Z,5.72
2023-04-03T01:30:34.663Z,5.71
2023-04-03T01:32:39.204Z,5.70
2023-04-03T01:34:42.089Z,5.64
2023-04-03T01:36:44.971Z,5.60
2023-04-03T01:38:47.847Z,5.59
2023-04-03T01:40:50.676Z,5.56
2023-04-03T01:42:53.810Z,5.56
2023-04-03T01:44:56.645Z,5.50
2023-04-03T01:46:59.473Z,5.54
2023-04-03T01:49:05.601Z,5.46
2023-04-03T01:51:08.415Z,5.47
2023-04-03T01:53:11.557Z,5.44
2023-04-03T01:55:14.418Z,5.42
2023-04-03T01:57:17.295Z,5.48
2023-04-03T01:59:20.383Z,5.47
2023-04-03T02:01:23.246Z,5.55
2023-04-03T02:03:26.193Z,5.42
2023-04-03T02:05:31.048Z,5.37
2023-04-03T02:07:34.060Z,5.36
2023-04-03T02:09:37.053Z,5.25
2023-04-03T02:11:39.956Z,5.20
2023-04-03T02:13:42.747Z,5.17
2023-04-03T02:15:47.304Z,5.12
2023-04-03T02:17:53.445Z,5.16
2023-04-03T02:19:57.116Z,5.24
2023-04-03T02:22:01.592Z,5.09
2023-04-03T02:24:04.669Z,5.14
2023-04-03T02:26:09.594Z,5.14
2023-04-03T02:28:12.237Z,5.13
2023-04-03T02:30:15.613Z,5.05
2023-04-03T02:32:18.409Z,5.01
2023-04-03T02:34:21.365Z,5.14
2023-04-03T02:36:24.425Z,5.10
2023-04-03T02:38:32.812Z,5.18
2023-04-03T02:40:36.032Z,5.07
2023-04-03T02:42:39.133Z,4.99
2023-04-03T02:44:42.302Z,4.98
2023-04-03T02:46:46.721Z,5.04
2023-04-03T02:48:49.821Z,5.06
2023-04-03T02:50:54.579Z,4.86
2023-04-03T02:52:57.497Z,4.96
2023-04-03T02:55:01.674Z,4.82
2023-04-03T02:57:04.906Z,4.89
2023-04-03T02:59:08.061Z,4.85
2023-04-03T03:01:13.917Z,4.87
2023-04-03T03:03:17.062Z,4.86
2023-04-03T03:05:20.187Z,4.89
2023-04-03T03:07:23.034Z,4.86
2023-04-03T03:09:26.597Z,4.78
2023-04-03T03:11:30.820Z,4.66
2023-04-03T03:13:34.035Z,4.59
2023-04-03T03:15:36.896Z,4.66
2023-04-03T03:17:40.261Z,4.79
2023-04-03T03:19:43.154Z,4.74
2023-04-03T03:21:46.149Z,4.68
2023-04-03T03:23:49.062Z,4.69
2023-04-03T03:25:57.581Z,4.78
2023-04-03T03:28:01.735Z,4.64
2023-04-03T03:30:05.748Z,4.64
2023-04-03T03:32:09.189Z,4.58
2023-04-03T03:34:12.774Z,4.69
2023-04-03T03:36:15.693Z,4.71
2023-04-03T03:38:18.689Z,4.61
2023-04-03T03:40:21.582Z,4.57
2023-04-03T03:42:24.417Z,4.51
2023-04-03T03:44:29.991Z,4.54
2023-04-03T03:46:32.963Z,4.45
2023-04-03T03:48:36.256Z,4.45
2023-04-03T03:50:39.230Z,4.57
2023-04-03T03:52:42.252Z,4.55
2023-04-03T03:54:45.501Z,4.49
2023-04-03T03:56:48.578Z,4.46
2023-04-03T03:58:51.583Z,4.44
2023-04-03T04:00:56.061Z,4.47
2023-04-03T04:02:59.524Z,4.40
2023-04-03T04:05:03.554Z,4.45
2023-04-03T04:07:06.618Z,4.52
2023-04-03T04:09:11.135Z,4.81
2023-04-03T04:11:14.265Z,4.88
2023-04-03T04:13:18.435Z,4.79
2023-04-03T04:15:22.551Z,4.64
2023-04-03T04:17:27.013Z,4.57
2023-04-03T04:19:29.954Z,4.65
2023-04-03T04:21:32.767Z,4.54
2023-04-03T04:23:35.617Z,4.51
2023-04-03T04:25:38.762Z,4.55
2023-04-03T04:27:42.633Z,4.52
2023-04-03T04:29:45.650Z,4.50
2023-04-03T04:32:06.917Z,4.51
2023-04-03T04:34:11.265Z,4.45
2023-04-03T04:36:15.545Z,4.51
2023-04-03T04:38:20.348Z,4.54
2023-04-03T04:40:23.966Z,4.54
2023-04-03T04:42:27.123Z,4.57
2023-04-03T04:44:30.106Z,4.52
2023-04-03T04:46:33.936Z,4.59
2023-04-03T04:48:37.379Z,4.47
2023-04-03T04:50:42.722Z,4.52
2023-04-03T04:52:45.604Z,4.50
2023-04-03T04:54:48.847Z,4.44
2023-04-03T04:56:51.752Z,4.36
2023-04-03T04:58:54.660Z,4.37
2023-04-03T05:01:02.140Z,4.41
2023-04-03T05:03:05.856Z,4.44
2023-04-03T05:05:09.825Z,4.36
2023-04-03T05:07:15.198Z,4.45
2023-04-03T05:09:18.337Z,4.44
2023-04-03T05:11:22.816Z,4.37
2023-04-03T05:13:28.456Z,4.40
2023-04-03T05:15:32.675Z,4.46
2023-04-03T05:17:36.906Z,4.40
2023-04-03T05:19:41.617Z,4.42
2023-04-03T05:21:46.257Z,4.40
2023-04-03T05:23:52.147Z,4.53
2023-04-03T05:25:57.104Z,4.54
2023-04-03T05:28:00.432Z,4.54
2023-04-03T05:30:03.812Z,4.63
2023-04-03T05:32:08.052Z,4.65
2023-04-03T05:34:10.816Z,4.56
2023-04-03T05:36:15.389Z,4.49
2023-04-03T05:38:22.004Z,4.62
2023-04-03T05:40:25.045Z,4.62
2023-04-03T05:42:31.931Z,4.77
2023-04-03T05:44:35.076Z,4.66
2023-04-03T05:46:38.559Z,4.68
2023-04-03T05:48:44.721Z,4.66
2023-04-03T05:50:51.235Z,4.67
2023-04-03T05:53:00.932Z,4.67
2023-04-03T05:55:07.520Z,4.75
2023-04-03T05:57:12.961Z,4.75
2023-04-03T05:59:19.573Z,4.84
2023-04-03T06:01:22.721Z,4.70
2023-04-03T06:03:26.104Z,4.71
2023-04-03T06:05:28.980Z,4.79
2023-04-03T06:07:32.123Z,4.75
2023-04-03T06:09:35.711Z,4.74
2023-04-03T06:11:38.605Z,4.85
2023-04-03T06:13:41.550Z,4.86
2023-04-03T06:15:45.698Z,4.89
2023-04-03T06:17:48.534Z,4.98
2023-04-03T06:19:51.612Z,4.99
2023-04-03T06:21:54.521Z,4.89
2023-04-03T06:23:57.325Z,4.93
2023-04-03T06:26:01.051Z,4.93
2023-04-03T06:28:03.909Z,4.87
2023-04-03T06:30:08.414Z,4.99
2023-04-03T06:32:12.630Z,4.97
2023-04-03T06:34:16.874Z,4.95
2023-04-03T06:36:22.061Z,4.88
2023-04-03T06:38:25.076Z,4.85
2023-04-03T06:40:28.258Z,4.86
2023-04-03T06:42:31.111Z,4.90
2023-04-03T06:44:44.426Z,5.16
2023-04-03T06:46:47.747Z,4.97
2023-04-03T06:48:51.919Z,4.91
2023-04-03T06:50:55.225Z,5.00
2023-04-03T06:52:58.235Z,5.10
2023-04-03T06:55:01.434Z,5.19
2023-04-03T06:57:04.575Z,5.19
2023-04-03T06:59:07.463Z,5.11
2023-04-03T07:01:10.837Z,5.16
2023-04-03T07:03:13.638Z,5.29
2023-04-03T07:05:17.979Z,5.24
2023-04-03T07:07:21.474Z,5.34
2023-04-03T07:09:24.355Z,5.54
2023-04-03T07:11:27.168Z,5.59
2023-04-03T07:13:30.020Z,5.69
2023-04-03T07:15:32.809Z,5.58
2023-04-03T07:17:36.855Z,5.54
2023-04-03T07:19:39.678Z,5.52
2023-04-03T07:21:44.323Z,5.55
2023-04-03T07:25:51.736Z,5.63
2023-04-03T07:27:55.330Z,5.74
2023-04-03T07:29:58.313Z,5.83
2023-04-03T07:32:01.622Z,5.73
2023-04-03T07:34:04.813Z,6.01
2023-04-03T07:36:08.989Z,5.99
2023-04-03T07:38:14.019Z,5.99
2023-04-03T07:40:18.096Z,5.93
2023-04-03T07:42:21.305Z,6.02
2023-04-03T07:44:24.081Z,6.09
2023-04-03T07:46:27.090Z,6.05
2023-04-03T07:48:29.944Z,5.96
2023-04-03T07:50:33.252Z,6.22
2023-04-03T07:52:36.099Z,6.51
2023-04-03T07:54:40.573Z,6.44
2023-04-03T07:56:43.809Z,6.45
2023-04-03T07:58:47.150Z,6.50
2023-04-03T08:00:50.561Z,6.49
2023-04-03T08:02:53.512Z,6.54
2023-04-03T08:04:56.493Z,6.53
2023-04-03T08:06:59.317Z,6.57
2023-04-03T08:09:02.651Z,6.64
2023-04-03T08:11:07.681Z,6.76
2023-04-03T08:13:11.462Z,6.80
2023-04-03T08:15:14.286Z,6.79
2023-04-03T08:17:17.193Z,6.84
2023-04-03T08:19:25.942Z,6.82
2023-04-03T08:21:29.583Z,7.02
2023-04-03T08:23:32.380Z,7.10
2023-04-03T08:25:35.455Z,6.97
2023-04-03T08:27:39.904Z,7.15
2023-04-03T08:29:42.870Z,7.29
2023-04-03T08:31:46.326Z,7.31
2023-04-03T08:33:50.199Z,7.33
2023-04-03T08:35:52.989Z,7.46
2023-04-03T08:37:56.062Z,7.53
2023-04-03T08:39:59.263Z,7.54
2023-04-03T08:42:08.134Z,7.56
2023-04-03T08:44:27.084Z,7.49
2023-04-03T08:46:42.343Z,7.58
2023-04-03T08:48:45.919Z,7.81
2023-04-03T08:50:53.061Z,7.81
2023-04-03T08:52:59.684Z,7.86
2023-04-03T08:55:06.227Z,7.97
2023-04-03T08:57:09.310Z,7.97
2023-04-03T08:59:19.388Z,7.89
2023-04-03T09:01:28.540Z,7.90
2023-04-03T09:03:32.737Z,8.01
2023-04-03T09:05:44.110Z,7.94
2023-04-03T09:07:51.488Z,7.97
2023-04-03T09:09:57.924Z,8.20
2023-04-03T09:12:11.664Z,8.36
2023-04-03T09:14:20.093Z,8.16
2023-04-03T09:16:37.676Z,8.28
2023-04-03T09:18:47.134Z,8.52
2023-04-03T09:20:58.627Z,8.59
2023-04-03T09:23:01.473Z,8.44
2023-04-03T09:25:13.727Z,8.67
2023-04-03T09:27:16.665Z,8.69
2023-04-03T09:29:21.793Z,8.69
2023-04-03T09:31:27.974Z,8.88
2023-04-03T09:33:32.716Z,8.88
2023-04-03T09:35:47.114Z,9.14
2023-04-03T09:37:52.456Z,9.32
2023-04-03T09:39:57.010Z,9.32
2023-04-03T09:42:02.642Z,9.16
2023-04-03T09:44:23.119Z,9.21
2023-04-03T09:46:34.008Z,9.37
2023-04-03T09:48:36.887Z,9.53
2023-04-03T09:50:40.565Z,9.60
2023-04-03T09:52:44.940Z,9.42
2023-04-03T09:54:47.831Z,9.61
2023-04-03T09:56:52.537Z,9.96
2023-04-03T09:59:15.846Z,9.95
2023-04-03T10:01:27.437Z,9.95
2023-04-03T10:03:35.676Z,10.01
2023-04-03T10:05:39.995Z,9.97
2023-04-03T10:07:46.422Z,10.03
2023-04-03T10:09:58.188Z,10.02
2023-04-03T10:12:05.652Z,10.14
2023-04-03T10:14:19.402Z,10.01
2023-04-03T10:16:28.407Z,10.21
2023-04-03T10:18:39.959Z,10.06
2023-04-03T10:20:47.867Z,10.21
2023-04-03T10:22:58.127Z,10.41
2023-04-03T10:25:06.408Z,10.06
2023-04-03T10:27:14.562Z,9.58
2023-04-03T10:29:29.520Z,9.64
2023-04-03T10:31:39.413Z,9.84
2023-04-03T10:33:55.536Z,9.89
2023-04-03T10:36:10.222Z,10.08
2023-04-03T10:38:22.628Z,10.07
2023-04-03T10:40:33.850Z,10.27
2023-04-03T10:42:45.061Z,10.43
2023-04-03T10:45:00.924Z,10.37
2023-04-03T10:47:13.635Z,10.50
2023-04-03T10:49:29.376Z,10.32
2023-04-03T10:51:42.617Z,10.09
2023-04-03T10:53:53.135Z,9.93
2023-04-03T10:56:04.129Z,9.69
2023-04-03T10:58:08.665Z,9.55
2023-04-03T11:00:20.487Z,9.66
2023-04-03T11:02:30.257Z,10.35
2023-04-03T11:04:40.272Z,10.55
2023-04-03T11:06:48.443Z,10.81
2023-04-03T11:08:57.861Z,11.05
2023-04-03T11:11:04.003Z,11.00
2023-04-03T11:13:14.307Z,10.66
2023-04-03T11:15:18.987Z,10.62
2023-04-03T11:17:31.387Z,10.68
2023-04-03T11:19:41.153Z,10.72
2023-04-03T11:21:49.273Z,10.62
2023-04-03T11:23:54.723Z,10.29
2023-04-03T11:26:06.672Z,10.06
2023-04-03T11:28:15.205Z,10.43
2023-04-03T11:30:24.925Z,10.59
2023-04-03T11:32:54.239Z,10.27
2023-04-03T11:35:01.895Z,9.94
2023-04-03T11:37:13.371Z,9.80
2023-04-03T11:39:23.972Z,9.64
2023-04-03T11:41:29.642Z,9.72
2023-04-03T11:43:33.719Z,9.76
2023-04-03T11:45:51.786Z,9.44
2023-04-03T11:47:57.000Z,9.43
2023-04-03T11:50:03.451Z,9.29
2023-04-03T11:52:11.367Z,9.22
2023-04-03T11:54:47.735Z,9.26
2023-04-03T11:56:50.405Z,9.15
2023-04-03T11:59:23.368Z,8.97
2023-04-03T12:01:47.921Z,9.03
2023-04-03T12:04:11.598Z,9.10
2023-04-03T12:06:53.802Z,9.10
2023-04-03T12:08:58.353Z,9.13
2023-04-03T12:11:23.407Z,9.29
2023-04-03T12:13:27.011Z,9.30
2023-04-03T12:15:54.769Z,9.57
2023-04-03T12:17:57.758Z,9.43
2023-04-03T12:20:00.588Z,9.35
2023-04-03T12:22:13.217Z,9.55
2023-04-03T12:24:34.600Z,10.02
2023-04-03T12:26:48.562Z,9.99
2023-04-03T12:28:54.656Z,10.10
2023-04-03T12:30:57.759Z,10.34
2023-04-03T12:33:19.271Z,10.36
2023-04-03T12:35:29.462Z,10.31
2023-04-03T12:37:50.243Z,10.50
2023-04-03T12:40:05.007Z,10.35
2023-04-03T12:42:49.186Z,10.44
2023-04-03T12:45:01.938Z,11.03
2023-04-03T12:47:21.684Z,10.92
2023-04-03T12:49:37.301Z,11.00
2023-04-03T12:51:42.549Z,10.80
2023-04-03T12:53:47.687Z,10.61
2023-04-03T12:55:56.040Z,10.44
2023-04-03T12:57:58.934Z,10.48
2023-04-03T13:00:01.875Z,10.82
2023-04-03T13:02:08.656Z,11.03
2023-04-03T13:04:13.521Z,11.02
2023-04-03T13:06:18.993Z,10.60
2023-04-03T13:08:22.239Z,10.33
2023-04-03T13:10:26.496Z,10.27
2023-04-03T13:12:31.241Z,10.72
2023-04-03T13:14:35.256Z,10.72
2023-04-03T13:16:42.245Z,10.79
2023-04-03T13:18:52.524Z,11.10
2023-04-03T13:20:59.734Z,11.15
2023-04-03T13:23:06.044Z,11.03
2023-04-03T13:25:14.975Z,10.91
2023-04-03T13:27:19.721Z,10.48
2023-04-03T13:29:30.980Z,10.75
2023-04-03T13:31:36.725Z,11.08
2023-04-03T13:33:39.939Z,11.09
2023-04-03T13:35:43.614Z,10.93
2023-04-03T13:37:56.572Z,10.83
2023-04-03T13:40:03.044Z,10.65
2023-04-03T13:42:18.421Z,10.24
2023-04-03T13:44:29.891Z,10.14
2023-04-03T13:46:32.750Z,10.24
2023-04-03T13:51:47.664Z,10.43
2023-04-03T13:53:54.916Z,10.30
2023-04-03T13:56:01.995Z,10.34
2023-04-03T13:58:22.882Z,10.45
2023-04-03T14:00:39.563Z,10.25
2023-04-03T14:02:42.439Z,10.27
2023-04-03T14:04:57.225Z,10.50
2023-04-03T14:07:00.510Z,10.42
2023-04-03T14:09:03.875Z,10.21
2023-04-03T14:11:07.237Z,9.90
2023-04-03T14:13:13.717Z,9.76
2023-04-03T14:15:20.522Z,9.60
2023-04-03T14:17:27.247Z,9.71
2023-04-03T14:19:32.788Z,9.92
2023-04-03T14:21:35.631Z,10.08
2023-04-03T14:23:38.757Z,10.11
2023-04-03T14:25:42.763Z,10.18
2023-04-03T14:27:47.015Z,10.58
2023-04-03T14:29:53.036Z,10.44
2023-04-03T14:32:11.443Z,10.59
2023-04-03T14:34:19.392Z,10.84
2023-04-03T14:36:23.077Z,10.71
2023-04-03T14:38:28.491Z,10.47
2023-04-03T14:40:31.736Z,10.21
2023-04-03T14:42:36.764Z,9.97
2023-04-03T14:44:39.593Z,9.87
2023-04-03T14:46:56.398Z,10.10
2023-04-03T14:49:00.338Z,10.04
2023-04-03T14:51:06.018Z,9.96
2023-04-03T14:53:10.050Z,9.96
2023-04-03T14:55:16.284Z,10.07
2023-04-03T14:57:19.805Z,10.16
2023-04-03T14:59:23.719Z,10.19
2023-04-03T15:01:26.646Z,10.25
2023-04-03T15:03:29.709Z,10.20
2023-04-03T15:05:32.565Z,10.40
2023-04-03T15:07:40.344Z,10.53
2023-04-03T15:09:43.216Z,10.37
2023-04-03T15:11:46.215Z,10.42
2023-04-03T15:13:49.105Z,10.34
2023-04-03T15:15:52.780Z,10.57
2023-04-03T15:17:58.952Z,10.42
2023-04-03T15:20:02.753Z,10.19
2023-04-03T15:22:05.882Z,10.04
2023-04-03T15:24:11.166Z,10.09
2023-04-03T15:26:14.160Z,10.18
2023-04-03T15:28:24.149Z,10.19
2023-04-03T15:30:26.926Z,10.26
2023-04-03T15:32:31.316Z,10.44
2023-04-03T15:34:35.456Z,10.52
2023-04-03T15:36:38.314Z,10.46
2023-04-03T15:38:43.060Z,10.21
2023-04-03T15:40:48.102Z,10.18
2023-04-03T15:42:53.084Z,10.39
2023-04-03T15:44:56.753Z,10.54
2023-04-03T15:47:00.494Z,10.53
2023-04-03T15:49:03.689Z,10.52
2023-04-03T15:51:08.099Z,10.49
2023-04-03T15:53:11.302Z,10.50
2023-04-03T15:55:14.174Z,10.60
2023-04-03T15:57:18.290Z,10.67
2023-04-03T15:59:21.305Z,10.74
2023-04-03T16:01:24.102Z,10.90
2023-04-03T16:03:27.383Z,10.87
2023-04-03T16:05:30.780Z,10.95
2023-04-03T16:07:33.690Z,11.10
2023-04-03T16:09:37.907Z,11.08
2023-04-03T16:11:41.067Z,10.96
2023-04-03T16:13:45.553Z,10.96
2023-04-03T16:15:49.693Z,10.93
2023-04-03T16:17:52.966Z,10.83
2023-04-03T16:19:56.580Z,11.11
2023-04-03T16:21:59.809Z,10.93
2023-04-03T16:24:03.464Z,10.86
2023-04-03T16:26:06.345Z,10.87
2023-04-03T16:28:09.186Z,10.79
2023-04-03T16:30:14.120Z,10.60
2023-04-03T16:32:16.825Z,10.55
2023-04-03T16:34:19.755Z,10.36
2023-04-03T16:36:22.597Z,10.30
2023-04-03T16:38:25.459Z,10.08
2023-04-03T16:40:28.295Z,9.91
2023-04-03T16:42:31.157Z,10.04
2023-04-03T16:44:34.051Z,9.87
2023-04-03T16:46:38.347Z,9.84
2023-04-03T16:48:41.287Z,9.96
2023-04-03T16:50:49.876Z,10.03
2023-04-03T16:52:52.842Z,10.08
2023-04-03T16:54:56.634Z,10.03
2023-04-03T16:56:59.972Z,10.11
2023-04-03T16:59:02.926Z,9.96
2023-04-03T17:01:13.106Z,9.91
2023-04-03T17:03:17.336Z,9.91
2023-04-03T17:05:20.123Z,10.01
2023-04-03T17:07:24.691Z,9.92
2023-04-03T17:09:27.654Z,9.63
2023-04-03T17:11:31.883Z,9.48
2023-04-03T17:13:34.735Z,9.58
2023-04-03T17:15:38.319Z,9.50
2023-04-03T17:17:41.483Z,9.43
2023-04-03T17:19:46.345Z,9.30
2023-04-03T17:21:49.018Z,9.32
2023-04-03T17:23:58.384Z,9.17
2023-04-03T17:26:01.332Z,8.96
2023-04-03T17:28:04.123Z,9.07
2023-04-03T17:30:08.541Z,9.04
2023-04-03T17:32:11.520Z,9.02
2023-04-03T17:34:14.391Z,9.12
2023-04-03T17:36:18.592Z,8.99
2023-04-03T17:38:21.354Z,8.95
2023-04-03T17:40:24.204Z,8.86
2023-04-03T17:42:27.017Z,8.66
2023-04-03T17:44:29.782Z,8.71
2023-04-03T17:46:33.863Z,8.75
2023-04-03T17:48:40.806Z,8.66
2023-04-03T17:50:43.627Z,8.52
2023-04-03T17:52:47.814Z,8.57
2023-04-03T17:54:50.774Z,8.62
2023-04-03T17:56:53.565Z,8.58
2023-04-03T17:58:58.176Z,8.61
2023-04-03T18:01:01.203Z,8.50
2023-04-03T18:03:04.069Z,8.49
2023-04-03T18:05:07.154Z,8.47
2023-04-03T18:07:10.271Z,8.48
2023-04-03T18:09:17.199Z,8.38
2023-04-03T18:11:21.827Z,8.30
2023-04-03T18:13:24.725Z,8.32
2023-04-03T18:15:27.599Z,8.36
2023-04-03T18:17:32.954Z,8.37
2023-04-03T18:19:36.288Z,8.44
2023-04-03T18:21:39.800Z,8.35
2023-04-03T18:23:45.072Z,8.21
2023-04-03T18:25:49.234Z,8.04
2023-04-03T18:27:53.185Z,8.19
2023-04-03T18:30:01.056Z,8.16
2023-04-03T18:32:05.261Z,8.05
2023-04-03T18:34:08.130Z,7.96
2023-04-03T18:36:11.750Z,8.06
2023-04-03T18:38:15.150Z,8.06
2023-04-03T18:40:18.431Z,7.95
2023-04-03T18:42:26.146Z,7.97
2023-04-03T18:44:29.120Z,7.86
2023-04-03T18:46:32.968Z,7.83
2023-04-03T18:48:36.384Z,7.78
2023-04-03T18:50:39.242Z,7.72
2023-04-03T18:52:42.176Z,7.67
2023-04-03T18:54:44.931Z,7.71
2023-04-03T18:56:47.866Z,7.66
2023-04-03T18:58:52.142Z,7.68
2023-04-03T19:00:55.334Z,7.74
2023-04-03T19:02:58.431Z,7.74
2023-04-03T19:05:01.356Z,7.77
2023-04-03T19:07:06.281Z,7.68
2023-04-03T19:09:09.025Z,7.68
2023-04-03T19:11:12.075Z,7.67
2023-04-03T19:13:14.875Z,7.55
2023-04-03T19:15:21.548Z,7.48
2023-04-03T19:17:24.433Z,7.54
2023-04-03T19:19:27.335Z,7.51
2023-04-03T19:21:30.154Z,7.45
2023-04-03T19:23:32.960Z,7.47
2023-04-03T19:25:36.132Z,7.37
2023-04-03T19:27:39.956Z,7.25
2023-04-03T19:29:42.750Z,7.44
2023-04-03T19:31:46.880Z,7.25
2023-04-03T19:33:50.521Z,7.38
2023-04-03T19:35:53.410Z,7.24
2023-04-03T19:37:56.230Z,7.17
2023-04-03T19:39:59.068Z,7.19
2023-04-03T19:42:02.651Z,7.30
2023-04-03T19:44:07.141Z,7.11
2023-04-03T19:46:10.682Z,7.04
2023-04-03T19:48:15.499Z,7.15
2023-04-03T19:50:18.420Z,7.06
2023-04-03T19:52:21.212Z,6.88
2023-04-03T19:54:24.757Z,6.91
2023-04-03T19:56:27.844Z,6.81
2023-04-03T19:58:30.724Z,6.86
2023-04-03T20:00:33.692Z,6.76
2023-04-03T20:02:49.292Z,6.82
2023-04-03T20:04:53.690Z,6.81
2023-04-03T20:06:56.947Z,6.73
2023-04-03T20:09:00.017Z,6.67
2023-04-03T20:11:02.908Z,6.71
2023-04-03T20:13:08.479Z,6.76
2023-04-03T20:15:12.500Z,6.70
2023-04-03T20:17:15.732Z,6.67
2023-04-03T20:19:19.241Z,6.67
2023-04-03T20:21:28.935Z,6.71
2023-04-03T20:23:32.529Z,6.55
2023-04-03T20:27:41.300Z,6.46
2023-04-03T20:29:44.520Z,6.39
2023-04-03T20:31:47.697Z,6.34
2023-04-03T20:33:51.355Z,6.33
2023-04-03T20:35:54.866Z,6.50
2023-04-03T20:37:59.341Z,6.50
2023-04-03T20:40:02.784Z,6.47
2023-04-03T20:42:05.656Z,6.42
2023-04-03T20:44:08.559Z,6.32
2023-04-03T20:46:13.904Z,6.53
2023-04-03T20:48:17.958Z,6.40
2023-04-03T20:50:22.402Z,6.20
2023-04-03T20:52:25.210Z,6.18
2023-04-03T20:54:29.653Z,6.17
2023-04-03T20:56:33.105Z,6.19
2023-04-03T20:58:38.913Z,6.31
2023-04-03T21:00:42.208Z,6.17
2023-04-03T21:02:45.954Z,6.20
2023-04-03T21:04:53.791Z,6.22
2023-04-03T21:07:33.651Z,6.06
2023-04-03T21:10:14.170Z,5.95
2023-04-03T21:12:55.467Z,5.95
2023-04-03T21:15:35.103Z,6.00
2023-04-03T21:17:38.193Z,5.90
2023-04-03T21:19:46.209Z,5.77
2023-04-03T21:21:51.173Z,5.81
2023-04-03T21:23:55.765Z,5.83
2023-04-03T21:26:00.216Z,5.72
2023-04-03T21:28:04.125Z,5.66
2023-04-03T21:30:08.313Z,5.83
2023-04-03T21:32:11.288Z,5.76
2023-04-03T21:34:15.525Z,5.78
2023-04-03T21:36:19.558Z,5.62
2023-04-03T21:38:22.418Z,5.56
2023-04-03T21:40:25.727Z,5.57
2023-04-03T21:42:28.441Z,5.66
2023-04-03T21:44:32.192Z,5.57
2023-04-03T21:46:36.868Z,5.57
2023-04-03T21:48:40.275Z,5.53
2023-04-03T21:50:43.195Z,5.68
2023-04-03T21:52:47.374Z,5.49
2023-04-03T21:54:50.379Z,5.50
2023-04-03T21:56:53.132Z,5.67
2023-04-03T21:58:56.020Z,5.64
2023-04-03T22:00:59.606Z,5.51
2023-04-03T22:03:09.914Z,5.44
2023-04-03T22:05:13.521Z,5.63
2023-04-03T22:07:16.485Z,5.46
2023-04-03T22:09:20.836Z,5.39
2023-04-03T22:11:27.222Z,5.38
2023-04-03T22:13:30.142Z,5.40
2023-04-03T22:15:36.949Z,5.46
2023-04-03T22:17:39.756Z,5.50
2023-04-03T22:19:42.566Z,5.39
2023-04-03T22:21:45.326Z,5.40
2023-04-03T22:23:48.143Z,5.37
2023-04-03T22:26:02.928Z,5.15
2023-04-03T22:28:05.963Z,5.19
2023-04-03T22:30:09.624Z,5.14
2023-04-03T22:32:12.375Z,5.23
2023-04-03T22:34:16.666Z,5.19
2023-04-03T22:36:19.541Z,5.06
2023-04-03T22:38:22.388Z,5.10
2023-04-03T22:40:25.183Z,5.14
2023-04-03T22:42:29.794Z,5.14
2023-04-03T22:44:39.634Z,5.07
2023-04-03T22:46:42.646Z,5.00
2023-04-03T22:48:46.096Z,5.11
2023-04-03T22:50:49.346Z,5.13
2023-04-03T22:52:52.326Z,4.99
2023-04-03T22:54:56.719Z,4.89
2023-04-03T22:57:00.755Z,4.97
2023-04-03T22:59:05.144Z,4.84
2023-04-03T23:01:09.498Z,4.80
2023-04-03T23:03:14.263Z,4.81
2023-04-03T23:05:17.281Z,4.83
2023-04-03T23:07:20.011Z,4.87
2023-04-03T23:09:23.435Z,4.81
2023-04-03T23:11:27.058Z,4.80
2023-04-03T23:13:29.859Z,4.76
2023-04-03T23:15:34.012Z,4.72
2023-04-03T23:17:37.227Z,4.74
2023-04-03T23:19:40.091Z,4.72
2023-04-03T23:21:43.037Z,4.63
2023-04-03T23:23:45.825Z,4.69
2023-04-03T23:25:52.710Z,4.60
2023-04-03T23:27:56.157Z,4.61
2023-04-03T23:29:58.943Z,4.54
2023-04-03T23:32:03.094Z,4.64
2023-04-03T23:34:05.941Z,4.71
2023-04-03T23:36:09.821Z,4.58
2023-04-03T23:38:12.889Z,4.49
2023-04-03T23:40:16.085Z,4.47
2023-04-03T23:42:18.820Z,4.50
2023-04-03T23:44:21.752Z,4.59
2023-04-03T23:46:24.657Z,4.55
2023-04-03T23:48:28.794Z,4.44
2023-04-03T23:50:31.902Z,4.64
2023-04-03T23:52:34.675Z,4.64
2023-04-03T23:54:37.448Z,4.55
2023-04-03T23:56:40.202Z,4.51
2023-04-03T23:58:43.010Z,4.44
